sensor_id;sensor_type;location;lat;lon;timestamp;P1;durP1;ratioP1;P2;durP2;ratioP2
36379;SDS011;22411;53.016;18.632;2023-06-24T00:01:50;7.13;;;5.43;;
36379;SDS011;22411;53.016;18.632;2023-06-24T00:04:16;7.93;;;5.40;;
36379;SDS011;22411;53.016;18.632;2023-06-24T00:06:44;10.70;;;6.07;;
36379;SDS011;22411;53.016;18.632;2023-06-24T00:09:10;11.27;;;6.70;;
36379;SDS011;22411;53.016;18.632;2023-06-24T00:11:35;9.38;;;6.28;;
36379;SDS011;22411;53.016;18.632;2023-06-24T00:14:01;8.20;;;6.72;;
36379;SDS011;22411;53.016;18.632;2023-06-24T00:16:27;8.93;;;6.43;;
36379;SDS011;22411;53.016;18.632;2023-06-24T00:18:54;9.02;;;5.82;;
36379;SDS011;22411;53.016;18.632;2023-06-24T00:21:24;9.23;;;6.28;;
36379;SDS011;22411;53.016;18.632;2023-06-24T00:23:58;7.68;;;5.82;;
36379;SDS011;22411;53.016;18.632;2023-06-24T00:26:29;7.90;;;6.25;;
36379;SDS011;22411;53.016;18.632;2023-06-24T00:28:55;8.07;;;6.93;;
36379;SDS011;22411;53.016;18.632;2023-06-24T00:31:21;8.52;;;6.05;;
36379;SDS011;22411;53.016;18.632;2023-06-24T00:33:46;8.63;;;5.90;;
36379;SDS011;22411;53.016;18.632;2023-06-24T00:36:12;11.75;;;7.53;;
36379;SDS011;22411;53.016;18.632;2023-06-24T00:38:38;7.88;;;5.93;;
36379;SDS011;22411;53.016;18.632;2023-06-24T00:41:04;8.23;;;6.75;;
36379;SDS011;22411;53.016;18.632;2023-06-24T00:43:31;6.85;;;6.10;;
36379;SDS011;22411;53.016;18.632;2023-06-24T00:45:57;9.82;;;7.07;;
36379;SDS011;22411;53.016;18.632;2023-06-24T00:48:23;9.13;;;7.20;;
36379;SDS011;22411;53.016;18.632;2023-06-24T00:50:49;10.90;;;7.60;;
36379;SDS011;22411;53.016;18.632;2023-06-24T00:53:19;9.05;;;6.35;;
36379;SDS011;22411;53.016;18.632;2023-06-24T00:55:45;7.13;;;6.45;;
36379;SDS011;22411;53.016;18.632;2023-06-24T00:58:12;9.07;;;6.85;;
36379;SDS011;22411;53.016;18.632;2023-06-24T01:00:44;6.75;;;6.03;;
36379;SDS011;22411;53.016;18.632;2023-06-24T01:03:12;9.77;;;7.18;;
36379;SDS011;22411;53.016;18.632;2023-06-24T01:05:39;7.75;;;5.82;;
36379;SDS011;22411;53.016;18.632;2023-06-24T01:08:06;8.65;;;6.28;;
36379;SDS011;22411;53.016;18.632;2023-06-24T01:10:32;8.70;;;6.07;;
36379;SDS011;22411;53.016;18.632;2023-06-24T01:12:58;7.25;;;5.72;;
36379;SDS011;22411;53.016;18.632;2023-06-24T01:15:23;7.07;;;5.38;;
36379;SDS011;22411;53.016;18.632;2023-06-24T01:18:07;6.15;;;5.60;;
36379;SDS011;22411;53.016;18.632;2023-06-24T01:20:47;7.93;;;6.05;;
36379;SDS011;22411;53.016;18.632;2023-06-24T01:31:57;6.72;;;5.53;;
36379;SDS011;22411;53.016;18.632;2023-06-24T01:37:08;5.93;;;5.18;;
36379;SDS011;22411;53.016;18.632;2023-06-24T01:39:40;6.93;;;4.40;;
36379;SDS011;22411;53.016;18.632;2023-06-24T01:42:11;5.28;;;3.80;;
36379;SDS011;22411;53.016;18.632;2023-06-24T01:44:40;6.93;;;4.68;;
36379;SDS011;22411;53.016;18.632;2023-06-24T01:47:08;6.82;;;4.18;;
36379;SDS011;22411;53.016;18.632;2023-06-24T01:49:38;8.40;;;5.35;;
36379;SDS011;22411;53.016;18.632;2023-06-24T01:52:05;6.72;;;4.45;;
36379;SDS011;22411;53.016;18.632;2023-06-24T01:54:34;5.38;;;3.67;;
36379;SDS011;22411;53.016;18.632;2023-06-24T01:57:01;4.97;;;4.00;;
36379;SDS011;22411;53.016;18.632;2023-06-24T01:59:29;4.57;;;4.15;;
36379;SDS011;22411;53.016;18.632;2023-06-24T02:01:55;4.15;;;3.75;;
36379;SDS011;22411;53.016;18.632;2023-06-24T02:04:24;5.50;;;3.63;;
36379;SDS011;22411;53.016;18.632;2023-06-24T02:06:50;4.50;;;3.80;;
36379;SDS011;22411;53.016;18.632;2023-06-24T02:09:19;4.60;;;3.70;;
36379;SDS011;22411;53.016;18.632;2023-06-24T02:11:46;5.18;;;3.45;;
36379;SDS011;22411;53.016;18.632;2023-06-24T02:14:14;4.70;;;3.55;;
36379;SDS011;22411;53.016;18.632;2023-06-24T02:16:42;5.65;;;3.80;;
36379;SDS011;22411;53.016;18.632;2023-06-24T02:19:11;4.80;;;3.40;;
36379;SDS011;22411;53.016;18.632;2023-06-24T02:21:39;5.68;;;3.30;;
36379;SDS011;22411;53.016;18.632;2023-06-24T02:24:07;5.28;;;3.72;;
36379;SDS011;22411;53.016;18.632;2023-06-24T02:26:33;4.22;;;3.85;;
36379;SDS011;22411;53.016;18.632;2023-06-24T02:29:02;5.15;;;3.90;;
36379;SDS011;22411;53.016;18.632;2023-06-24T02:31:29;4.30;;;3.90;;
36379;SDS011;22411;53.016;18.632;2023-06-24T02:33:54;4.25;;;3.85;;
36379;SDS011;22411;53.016;18.632;2023-06-24T02:36:20;6.03;;;4.10;;
36379;SDS011;22411;53.016;18.632;2023-06-24T02:38:47;6.20;;;4.13;;
36379;SDS011;22411;53.016;18.632;2023-06-24T02:41:12;4.80;;;4.15;;
36379;SDS011;22411;53.016;18.632;2023-06-24T02:43:39;4.10;;;3.70;;
36379;SDS011;22411;53.016;18.632;2023-06-24T02:46:04;6.78;;;4.60;;
36379;SDS011;22411;53.016;18.632;2023-06-24T02:48:31;6.57;;;4.00;;
36379;SDS011;22411;53.016;18.632;2023-06-24T02:51:00;5.30;;;4.80;;
36379;SDS011;22411;53.016;18.632;2023-06-24T02:53:29;5.13;;;4.63;;
36379;SDS011;22411;53.016;18.632;2023-06-24T02:55:55;4.95;;;3.75;;
36379;SDS011;22411;53.016;18.632;2023-06-24T02:58:23;7.05;;;3.78;;
36379;SDS011;22411;53.016;18.632;2023-06-24T03:00:59;5.80;;;4.45;;
36379;SDS011;22411;53.016;18.632;2023-06-24T03:03:26;7.97;;;5.00;;
36379;SDS011;22411;53.016;18.632;2023-06-24T03:05:53;8.27;;;4.47;;
36379;SDS011;22411;53.016;18.632;2023-06-24T03:08:20;5.22;;;3.58;;
36379;SDS011;22411;53.016;18.632;2023-06-24T03:10:45;6.00;;;4.57;;
36379;SDS011;22411;53.016;18.632;2023-06-24T03:13:11;6.30;;;4.22;;
36379;SDS011;22411;53.016;18.632;2023-06-24T03:15:37;5.20;;;4.32;;
36379;SDS011;22411;53.016;18.632;2023-06-24T03:18:03;4.72;;;3.90;;
36379;SDS011;22411;53.016;18.632;2023-06-24T03:20:28;6.85;;;5.38;;
36379;SDS011;22411;53.016;18.632;2023-06-24T03:22:54;5.63;;;3.70;;
36379;SDS011;22411;53.016;18.632;2023-06-24T03:25:21;4.60;;;4.13;;
36379;SDS011;22411;53.016;18.632;2023-06-24T03:27:47;7.97;;;4.68;;
36379;SDS011;22411;53.016;18.632;2023-06-24T03:30:12;4.80;;;4.00;;
36379;SDS011;22411;53.016;18.632;2023-06-24T03:32:40;4.78;;;4.32;;
36379;SDS011;22411;53.016;18.632;2023-06-24T03:35:05;5.10;;;3.85;;
36379;SDS011;22411;53.016;18.632;2023-06-24T03:37:32;5.53;;;4.20;;
36379;SDS011;22411;53.016;18.632;2023-06-24T03:39:58;6.90;;;4.75;;
36379;SDS011;22411;53.016;18.632;2023-06-24T03:42:23;6.28;;;4.35;;
36379;SDS011;22411;53.016;18.632;2023-06-24T03:44:49;5.68;;;4.57;;
36379;SDS011;22411;53.016;18.632;2023-06-24T03:47:15;6.68;;;4.00;;
36379;SDS011;22411;53.016;18.632;2023-06-24T03:49:40;6.10;;;3.75;;
36379;SDS011;22411;53.016;18.632;2023-06-24T03:52:06;5.78;;;4.75;;
36379;SDS011;22411;53.016;18.632;2023-06-24T03:54:34;7.40;;;4.63;;
36379;SDS011;22411;53.016;18.632;2023-06-24T03:56:59;4.97;;;4.50;;
36379;SDS011;22411;53.016;18.632;2023-06-24T03:59:25;4.88;;;4.40;;
36379;SDS011;22411;53.016;18.632;2023-06-24T04:01:51;7.75;;;4.93;;
36379;SDS011;22411;53.016;18.632;2023-06-24T04:04:17;7.55;;;4.00;;
36379;SDS011;22411;53.016;18.632;2023-06-24T04:06:43;4.35;;;3.72;;
36379;SDS011;22411;53.016;18.632;2023-06-24T04:09:08;6.55;;;4.30;;
36379;SDS011;22411;53.016;18.632;2023-06-24T04:11:35;6.20;;;3.92;;
36379;SDS011;22411;53.016;18.632;2023-06-24T04:14:01;5.15;;;4.63;;
36379;SDS011;22411;53.016;18.632;2023-06-24T04:16:27;4.63;;;4.20;;
36379;SDS011;22411;53.016;18.632;2023-06-24T04:18:53;5.13;;;4.55;;
36379;SDS011;22411;53.016;18.632;2023-06-24T04:21:18;4.50;;;3.65;;
36379;SDS011;22411;53.016;18.632;2023-06-24T04:23:44;7.18;;;4.75;;
36379;SDS011;22411;53.016;18.632;2023-06-24T04:26:10;7.43;;;4.90;;
36379;SDS011;22411;53.016;18.632;2023-06-24T04:28:35;6.22;;;4.22;;
36379;SDS011;22411;53.016;18.632;2023-06-24T04:31:01;5.10;;;3.75;;
36379;SDS011;22411;53.016;18.632;2023-06-24T04:33:26;5.78;;;3.55;;
36379;SDS011;22411;53.016;18.632;2023-06-24T04:35:52;5.28;;;3.92;;
36379;SDS011;22411;53.016;18.632;2023-06-24T04:38:18;5.03;;;4.45;;
36379;SDS011;22411;53.016;18.632;2023-06-24T04:40:44;4.78;;;4.13;;
36379;SDS011;22411;53.016;18.632;2023-06-24T04:43:10;6.28;;;4.68;;
36379;SDS011;22411;53.016;18.632;2023-06-24T04:45:36;5.75;;;4.20;;
36379;SDS011;22411;53.016;18.632;2023-06-24T04:48:01;7.15;;;4.60;;
36379;SDS011;22411;53.016;18.632;2023-06-24T04:50:27;6.75;;;4.28;;
36379;SDS011;22411;53.016;18.632;2023-06-24T04:52:53;6.95;;;4.85;;
36379;SDS011;22411;53.016;18.632;2023-06-24T04:55:22;5.13;;;3.67;;
36379;SDS011;22411;53.016;18.632;2023-06-24T04:57:47;4.70;;;4.13;;
36379;SDS011;22411;53.016;18.632;2023-06-24T05:00:13;7.53;;;4.60;;
36379;SDS011;22411;53.016;18.632;2023-06-24T05:02:39;4.38;;;3.58;;
36379;SDS011;22411;53.016;18.632;2023-06-24T05:05:05;4.47;;;4.07;;
36379;SDS011;22411;53.016;18.632;2023-06-24T05:07:31;6.22;;;3.80;;
36379;SDS011;22411;53.016;18.632;2023-06-24T05:09:56;6.45;;;4.78;;
36379;SDS011;22411;53.016;18.632;2023-06-24T05:12:22;4.30;;;3.72;;
36379;SDS011;22411;53.016;18.632;2023-06-24T05:14:51;4.68;;;3.92;;
36379;SDS011;22411;53.016;18.632;2023-06-24T05:17:17;4.40;;;3.72;;
36379;SDS011;22411;53.016;18.632;2023-06-24T05:19:44;5.43;;;4.32;;
36379;SDS011;22411;53.016;18.632;2023-06-24T05:22:10;4.93;;;4.35;;
36379;SDS011;22411;53.016;18.632;2023-06-24T05:24:35;6.25;;;3.33;;
36379;SDS011;22411;53.016;18.632;2023-06-24T05:27:05;4.05;;;3.47;;
36379;SDS011;22411;53.016;18.632;2023-06-24T05:29:32;5.25;;;3.22;;
36379;SDS011;22411;53.016;18.632;2023-06-24T05:31:58;4.60;;;3.25;;
36379;SDS011;22411;53.016;18.632;2023-06-24T05:34:25;8.07;;;3.38;;
36379;SDS011;22411;53.016;18.632;2023-06-24T05:36:50;3.90;;;3.55;;
36379;SDS011;22411;53.016;18.632;2023-06-24T05:39:16;3.58;;;3.08;;
36379;SDS011;22411;53.016;18.632;2023-06-24T05:41:42;3.35;;;3.05;;
36379;SDS011;22411;53.016;18.632;2023-06-24T05:44:08;5.47;;;3.40;;
36379;SDS011;22411;53.016;18.632;2023-06-24T05:46:37;3.00;;;2.70;;
36379;SDS011;22411;53.016;18.632;2023-06-24T05:49:03;6.28;;;3.75;;
36379;SDS011;22411;53.016;18.632;2023-06-24T05:51:29;4.38;;;2.55;;
36379;SDS011;22411;53.016;18.632;2023-06-24T05:53:54;6.18;;;3.30;;
36379;SDS011;22411;53.016;18.632;2023-06-24T05:56:20;4.72;;;2.80;;
36379;SDS011;22411;53.016;18.632;2023-06-24T05:58:50;4.28;;;3.33;;
36379;SDS011;22411;53.016;18.632;2023-06-24T06:01:15;3.33;;;2.70;;
36379;SDS011;22411;53.016;18.632;2023-06-24T06:03:41;6.57;;;3.05;;
36379;SDS011;22411;53.016;18.632;2023-06-24T06:06:07;5.75;;;2.95;;
36379;SDS011;22411;53.016;18.632;2023-06-24T06:08:33;5.30;;;3.03;;
36379;SDS011;22411;53.016;18.632;2023-06-24T06:10:59;9.85;;;2.58;;
36379;SDS011;22411;53.016;18.632;2023-06-24T06:13:28;6.25;;;2.90;;
36379;SDS011;22411;53.016;18.632;2023-06-24T06:15:54;4.20;;;2.70;;
36379;SDS011;22411;53.016;18.632;2023-06-24T06:18:21;3.45;;;2.78;;
36379;SDS011;22411;53.016;18.632;2023-06-24T06:20:46;4.25;;;2.53;;
36379;SDS011;22411;53.016;18.632;2023-06-24T06:23:12;3.85;;;2.08;;
36379;SDS011;22411;53.016;18.632;2023-06-24T06:25:38;3.15;;;2.40;;
36379;SDS011;22411;53.016;18.632;2023-06-24T06:28:04;3.55;;;2.47;;
36379;SDS011;22411;53.016;18.632;2023-06-24T06:30:30;4.68;;;1.88;;
36379;SDS011;22411;53.016;18.632;2023-06-24T06:32:55;6.32;;;2.92;;
36379;SDS011;22411;53.016;18.632;2023-06-24T06:35:21;2.47;;;2.05;;
36379;SDS011;22411;53.016;18.632;2023-06-24T06:37:47;3.05;;;2.50;;
36379;SDS011;22411;53.016;18.632;2023-06-24T06:40:17;5.00;;;2.47;;
36379;SDS011;22411;53.016;18.632;2023-06-24T06:42:44;3.28;;;1.92;;
36379;SDS011;22411;53.016;18.632;2023-06-24T06:45:09;3.85;;;2.03;;
36379;SDS011;22411;53.016;18.632;2023-06-24T06:47:35;2.67;;;2.45;;
36379;SDS011;22411;53.016;18.632;2023-06-24T06:50:01;2.85;;;1.73;;
36379;SDS011;22411;53.016;18.632;2023-06-24T06:52:27;3.40;;;1.90;;
36379;SDS011;22411;53.016;18.632;2023-06-24T06:54:55;2.50;;;1.75;;
36379;SDS011;22411;53.016;18.632;2023-06-24T06:57:22;5.65;;;2.03;;
36379;SDS011;22411;53.016;18.632;2023-06-24T06:59:48;3.50;;;2.17;;
36379;SDS011;22411;53.016;18.632;2023-06-24T07:02:16;2.53;;;1.63;;
36379;SDS011;22411;53.016;18.632;2023-06-24T07:04:43;2.40;;;1.80;;
36379;SDS011;22411;53.016;18.632;2023-06-24T07:07:08;3.45;;;2.78;;
36379;SDS011;22411;53.016;18.632;2023-06-24T07:09:34;2.85;;;2.10;;
36379;SDS011;22411;53.016;18.632;2023-06-24T07:12:00;4.00;;;1.92;;
36379;SDS011;22411;53.016;18.632;2023-06-24T07:14:26;2.75;;;1.98;;
36379;SDS011;22411;53.016;18.632;2023-06-24T07:16:52;3.95;;;2.33;;
36379;SDS011;22411;53.016;18.632;2023-06-24T07:19:18;2.38;;;2.15;;
36379;SDS011;22411;53.016;18.632;2023-06-24T07:21:44;3.95;;;1.88;;
36379;SDS011;22411;53.016;18.632;2023-06-24T07:24:09;2.63;;;1.63;;
36379;SDS011;22411;53.016;18.632;2023-06-24T07:26:35;5.05;;;1.98;;
36379;SDS011;22411;53.016;18.632;2023-06-24T07:29:01;4.55;;;2.28;;
36379;SDS011;22411;53.016;18.632;2023-06-24T07:31:27;2.42;;;2.20;;
36379;SDS011;22411;53.016;18.632;2023-06-24T07:33:52;3.42;;;2.08;;
36379;SDS011;22411;53.016;18.632;2023-06-24T07:36:18;2.53;;;1.90;;
36379;SDS011;22411;53.016;18.632;2023-06-24T07:38:44;5.00;;;2.55;;
36379;SDS011;22411;53.016;18.632;2023-06-24T07:41:10;4.78;;;2.38;;
36379;SDS011;22411;53.016;18.632;2023-06-24T07:43:35;9.52;;;2.97;;
36379;SDS011;22411;53.016;18.632;2023-06-24T07:46:01;4.68;;;2.45;;
36379;SDS011;22411;53.016;18.632;2023-06-24T07:48:27;3.42;;;2.47;;
36379;SDS011;22411;53.016;18.632;2023-06-24T07:50:53;6.10;;;3.72;;
36379;SDS011;22411;53.016;18.632;2023-06-24T07:53:18;4.22;;;2.55;;
36379;SDS011;22411;53.016;18.632;2023-06-24T07:55:44;3.95;;;2.80;;
36379;SDS011;22411;53.016;18.632;2023-06-24T07:58:10;4.43;;;2.88;;
36379;SDS011;22411;53.016;18.632;2023-06-24T08:00:35;4.38;;;2.53;;
36379;SDS011;22411;53.016;18.632;2023-06-24T08:03:09;6.13;;;2.58;;
36379;SDS011;22411;53.016;18.632;2023-06-24T08:05:41;3.83;;;1.92;;
36379;SDS011;22411;53.016;18.632;2023-06-24T08:08:07;5.93;;;2.45;;
36379;SDS011;22411;53.016;18.632;2023-06-24T08:10:33;4.43;;;2.85;;
36379;SDS011;22411;53.016;18.632;2023-06-24T08:12:59;4.85;;;1.88;;
36379;SDS011;22411;53.016;18.632;2023-06-24T08:15:25;3.05;;;2.20;;
36379;SDS011;22411;53.016;18.632;2023-06-24T08:17:51;3.53;;;2.28;;
36379;SDS011;22411;53.016;18.632;2023-06-24T08:20:19;4.80;;;2.35;;
36379;SDS011;22411;53.016;18.632;2023-06-24T08:22:46;3.05;;;2.20;;
36379;SDS011;22411;53.016;18.632;2023-06-24T08:25:11;2.88;;;1.73;;
36379;SDS011;22411;53.016;18.632;2023-06-24T08:27:37;3.72;;;2.10;;
36379;SDS011;22411;53.016;18.632;2023-06-24T08:30:04;3.08;;;2.08;;
36379;SDS011;22411;53.016;18.632;2023-06-24T08:32:30;5.00;;;1.90;;
36379;SDS011;22411;53.016;18.632;2023-06-24T08:34:56;5.85;;;1.85;;
36379;SDS011;22411;53.016;18.632;2023-06-24T08:37:21;2.60;;;1.63;;
36379;SDS011;22411;53.016;18.632;2023-06-24T08:39:47;4.18;;;1.73;;
36379;SDS011;22411;53.016;18.632;2023-06-24T08:42:13;5.57;;;1.75;;
36379;SDS011;22411;53.016;18.632;2023-06-24T08:44:39;3.80;;;1.92;;
36379;SDS011;22411;53.016;18.632;2023-06-24T08:47:04;1.92;;;1.35;;
36379;SDS011;22411;53.016;18.632;2023-06-24T08:49:30;3.35;;;2.13;;
36379;SDS011;22411;53.016;18.632;2023-06-24T08:52:06;2.83;;;2.05;;
36379;SDS011;22411;53.016;18.632;2023-06-24T08:54:36;3.22;;;1.70;;
36379;SDS011;22411;53.016;18.632;2023-06-24T08:57:05;3.45;;;1.75;;
36379;SDS011;22411;53.016;18.632;2023-06-24T08:59:33;5.68;;;1.48;;
36379;SDS011;22411;53.016;18.632;2023-06-24T09:01:59;3.10;;;1.98;;
36379;SDS011;22411;53.016;18.632;2023-06-24T09:04:25;2.80;;;1.63;;
36379;SDS011;22411;53.016;18.632;2023-06-24T09:06:51;3.03;;;1.88;;
36379;SDS011;22411;53.016;18.632;2023-06-24T09:09:20;3.72;;;1.70;;
36379;SDS011;22411;53.016;18.632;2023-06-24T09:11:53;2.20;;;1.52;;
36379;SDS011;22411;53.016;18.632;2023-06-24T09:14:24;5.90;;;2.05;;
36379;SDS011;22411;53.016;18.632;2023-06-24T09:16:54;2.90;;;2.45;;
36379;SDS011;22411;53.016;18.632;2023-06-24T09:21:48;2.35;;;2.15;;
36379;SDS011;22411;53.016;18.632;2023-06-24T09:24:14;2.22;;;1.08;;
36379;SDS011;22411;53.016;18.632;2023-06-24T09:26:41;1.73;;;1.23;;
36379;SDS011;22411;53.016;18.632;2023-06-24T09:29:08;3.10;;;1.13;;
36379;SDS011;22411;53.016;18.632;2023-06-24T09:31:34;2.40;;;1.10;;
36379;SDS011;22411;53.016;18.632;2023-06-24T09:34:00;2.70;;;0.98;;
36379;SDS011;22411;53.016;18.632;2023-06-24T09:36:25;2.30;;;1.20;;
36379;SDS011;22411;53.016;18.632;2023-06-24T09:38:51;1.88;;;1.30;;
36379;SDS011;22411;53.016;18.632;2023-06-24T09:41:17;3.28;;;1.38;;
36379;SDS011;22411;53.016;18.632;2023-06-24T09:43:43;2.00;;;1.35;;
36379;SDS011;22411;53.016;18.632;2023-06-24T09:46:12;4.72;;;1.42;;
36379;SDS011;22411;53.016;18.632;2023-06-24T09:48:40;4.20;;;2.92;;
36379;SDS011;22411;53.016;18.632;2023-06-24T09:51:05;3.47;;;1.88;;
36379;SDS011;22411;53.016;18.632;2023-06-24T09:53:34;2.53;;;1.77;;
36379;SDS011;22411;53.016;18.632;2023-06-24T09:56:00;3.17;;;1.60;;
36379;SDS011;22411;53.016;18.632;2023-06-24T09:58:28;3.80;;;2.35;;
36379;SDS011;22411;53.016;18.632;2023-06-24T10:00:59;2.97;;;2.30;;
36379;SDS011;22411;53.016;18.632;2023-06-24T10:03:29;3.08;;;1.92;;
36379;SDS011;22411;53.016;18.632;2023-06-24T10:05:57;2.75;;;1.73;;
36379;SDS011;22411;53.016;18.632;2023-06-24T10:08:23;2.67;;;1.48;;
36379;SDS011;22411;53.016;18.632;2023-06-24T10:10:49;2.53;;;1.10;;
36379;SDS011;22411;53.016;18.632;2023-06-24T10:13:15;2.15;;;1.40;;
36379;SDS011;22411;53.016;18.632;2023-06-24T10:15:40;2.83;;;1.15;;
36379;SDS011;22411;53.016;18.632;2023-06-24T10:20:59;2.22;;;1.45;;
36379;SDS011;22411;53.016;18.632;2023-06-24T10:26:25;2.08;;;1.23;;
36379;SDS011;22411;53.016;18.632;2023-06-24T10:34:24;4.47;;;1.50;;
36379;SDS011;22411;53.016;18.632;2023-06-24T10:47:36;2.28;;;1.65;;
36379;SDS011;22411;53.016;18.632;2023-06-24T10:50:04;2.65;;;1.38;;
36379;SDS011;22411;53.016;18.632;2023-06-24T10:52:31;2.53;;;0.95;;
36379;SDS011;22411;53.016;18.632;2023-06-24T10:54:57;1.70;;;1.05;;
36379;SDS011;22411;53.016;18.632;2023-06-24T10:57:27;2.22;;;1.05;;
36379;SDS011;22411;53.016;18.632;2023-06-24T10:59:55;2.92;;;0.65;;
36379;SDS011;22411;53.016;18.632;2023-06-24T11:02:22;3.80;;;1.15;;
36379;SDS011;22411;53.016;18.632;2023-06-24T11:04:53;1.48;;;0.75;;
36379;SDS011;22411;53.016;18.632;2023-06-24T11:07:29;2.25;;;1.13;;
36379;SDS011;22411;53.016;18.632;2023-06-24T11:10:03;1.92;;;0.98;;
36379;SDS011;22411;53.016;18.632;2023-06-24T11:12:31;1.90;;;1.13;;
36379;SDS011;22411;53.016;18.632;2023-06-24T11:15:02;1.55;;;0.75;;
36379;SDS011;22411;53.016;18.632;2023-06-24T11:17:29;1.83;;;0.95;;
36379;SDS011;22411;53.016;18.632;2023-06-24T11:19:56;3.35;;;1.35;;
36379;SDS011;22411;53.016;18.632;2023-06-24T11:22:22;2.72;;;1.17;;
36379;SDS011;22411;53.016;18.632;2023-06-24T11:24:49;6.03;;;1.08;;
36379;SDS011;22411;53.016;18.632;2023-06-24T11:27:15;2.38;;;1.10;;
36379;SDS011;22411;53.016;18.632;2023-06-24T11:29:40;2.28;;;0.75;;
36379;SDS011;22411;53.016;18.632;2023-06-24T11:32:09;1.70;;;1.15;;
36379;SDS011;22411;53.016;18.632;2023-06-24T11:34:35;2.15;;;0.90;;
36379;SDS011;22411;53.016;18.632;2023-06-24T11:37:14;2.58;;;1.30;;
36379;SDS011;22411;53.016;18.632;2023-06-24T11:39:42;4.22;;;1.20;;
36379;SDS011;22411;53.016;18.632;2023-06-24T11:42:08;3.67;;;1.60;;
36379;SDS011;22411;53.016;18.632;2023-06-24T11:44:35;4.15;;;1.30;;
36379;SDS011;22411;53.016;18.632;2023-06-24T11:47:07;2.72;;;1.42;;
36379;SDS011;22411;53.016;18.632;2023-06-24T11:52:18;2.65;;;1.30;;
36379;SDS011;22411;53.016;18.632;2023-06-24T11:54:44;2.05;;;1.23;;
36379;SDS011;22411;53.016;18.632;2023-06-24T11:57:10;2.08;;;1.25;;
36379;SDS011;22411;53.016;18.632;2023-06-24T11:59:38;4.78;;;1.73;;
36379;SDS011;22411;53.016;18.632;2023-06-24T12:02:04;2.10;;;1.60;;
36379;SDS011;22411;53.016;18.632;2023-06-24T12:04:30;4.57;;;1.58;;
36379;SDS011;22411;53.016;18.632;2023-06-24T12:06:56;4.68;;;1.52;;
36379;SDS011;22411;53.016;18.632;2023-06-24T12:09:23;2.30;;;1.50;;
36379;SDS011;22411;53.016;18.632;2023-06-24T12:11:49;3.17;;;1.10;;
36379;SDS011;22411;53.016;18.632;2023-06-24T12:14:15;3.20;;;1.95;;
36379;SDS011;22411;53.016;18.632;2023-06-24T12:16:40;3.30;;;1.13;;
36379;SDS011;22411;53.016;18.632;2023-06-24T12:19:07;2.55;;;1.52;;
36379;SDS011;22411;53.016;18.632;2023-06-24T12:21:33;1.90;;;1.30;;
36379;SDS011;22411;53.016;18.632;2023-06-24T12:24:00;2.47;;;1.70;;
36379;SDS011;22411;53.016;18.632;2023-06-24T12:26:26;2.50;;;1.45;;
36379;SDS011;22411;53.016;18.632;2023-06-24T12:28:53;3.92;;;1.60;;
36379;SDS011;22411;53.016;18.632;2023-06-24T12:31:20;2.67;;;1.27;;
36379;SDS011;22411;53.016;18.632;2023-06-24T12:33:46;2.80;;;1.55;;
36379;SDS011;22411;53.016;18.632;2023-06-24T12:36:11;2.53;;;1.85;;
36379;SDS011;22411;53.016;18.632;2023-06-24T12:38:37;2.60;;;1.40;;
36379;SDS011;22411;53.016;18.632;2023-06-24T12:41:03;1.95;;;1.23;;
36379;SDS011;22411;53.016;18.632;2023-06-24T12:43:29;3.95;;;1.65;;
36379;SDS011;22411;53.016;18.632;2023-06-24T12:45:55;4.60;;;1.63;;
36379;SDS011;22411;53.016;18.632;2023-06-24T12:48:21;2.60;;;1.48;;
36379;SDS011;22411;53.016;18.632;2023-06-24T12:50:46;3.20;;;1.60;;
36379;SDS011;22411;53.016;18.632;2023-06-24T12:53:14;2.63;;;1.67;;
36379;SDS011;22411;53.016;18.632;2023-06-24T12:55:40;3.30;;;1.70;;
36379;SDS011;22411;53.016;18.632;2023-06-24T12:58:07;3.88;;;1.30;;
36379;SDS011;22411;53.016;18.632;2023-06-24T13:00:32;5.15;;;1.25;;
36379;SDS011;22411;53.016;18.632;2023-06-24T13:02:58;3.88;;;1.25;;
36379;SDS011;22411;53.016;18.632;2023-06-24T13:05:24;2.65;;;1.10;;
36379;SDS011;22411;53.016;18.632;2023-06-24T13:07:50;2.80;;;1.70;;
36379;SDS011;22411;53.016;18.632;2023-06-24T13:10:16;3.28;;;2.03;;
36379;SDS011;22411;53.016;18.632;2023-06-24T13:12:42;2.00;;;1.08;;
36379;SDS011;22411;53.016;18.632;2023-06-24T13:15:08;2.15;;;1.45;;
36379;SDS011;22411;53.016;18.632;2023-06-24T13:17:35;2.10;;;1.60;;
36379;SDS011;22411;53.016;18.632;2023-06-24T13:20:01;2.20;;;1.42;;
36379;SDS011;22411;53.016;18.632;2023-06-24T13:22:29;1.90;;;1.50;;
36379;SDS011;22411;53.016;18.632;2023-06-24T13:24:56;2.63;;;1.48;;
36379;SDS011;22411;53.016;18.632;2023-06-24T13:27:21;3.80;;;1.67;;
36379;SDS011;22411;53.016;18.632;2023-06-24T13:29:47;2.58;;;1.38;;
36379;SDS011;22411;53.016;18.632;2023-06-24T13:32:13;3.50;;;1.58;;
36379;SDS011;22411;53.016;18.632;2023-06-24T13:34:39;2.65;;;1.33;;
36379;SDS011;22411;53.016;18.632;2023-06-24T13:37:05;2.50;;;1.98;;
36379;SDS011;22411;53.016;18.632;2023-06-24T13:39:30;2.30;;;1.98;;
36379;SDS011;22411;53.016;18.632;2023-06-24T13:41:57;2.95;;;1.90;;
36379;SDS011;22411;53.016;18.632;2023-06-24T13:44:23;3.65;;;1.77;;
36379;SDS011;22411;53.016;18.632;2023-06-24T13:46:49;3.75;;;1.67;;
36379;SDS011;22411;53.016;18.632;2023-06-24T13:49:18;2.30;;;1.88;;
36379;SDS011;22411;53.016;18.632;2023-06-24T13:51:46;1.80;;;1.40;;
36379;SDS011;22411;53.016;18.632;2023-06-24T13:54:11;2.38;;;1.55;;
36379;SDS011;22411;53.016;18.632;2023-06-24T13:56:37;2.60;;;1.42;;
36379;SDS011;22411;53.016;18.632;2023-06-24T13:59:05;2.00;;;1.80;;
36379;SDS011;22411;53.016;18.632;2023-06-24T14:01:31;3.42;;;1.70;;
36379;SDS011;22411;53.016;18.632;2023-06-24T14:03:56;3.15;;;1.77;;
36379;SDS011;22411;53.016;18.632;2023-06-24T14:06:23;1.98;;;1.15;;
36379;SDS011;22411;53.016;18.632;2023-06-24T14:08:49;2.33;;;1.48;;
36379;SDS011;22411;53.016;18.632;2023-06-24T14:11:16;2.28;;;1.17;;
36379;SDS011;22411;53.016;18.632;2023-06-24T14:13:42;2.58;;;1.77;;
36379;SDS011;22411;53.016;18.632;2023-06-24T14:16:09;4.32;;;2.05;;
36379;SDS011;22411;53.016;18.632;2023-06-24T14:18:35;1.92;;;1.67;;
36379;SDS011;22411;53.016;18.632;2023-06-24T14:21:05;2.20;;;1.50;;
36379;SDS011;22411;53.016;18.632;2023-06-24T14:23:32;2.22;;;1.45;;
36379;SDS011;22411;53.016;18.632;2023-06-24T14:25:58;4.07;;;1.63;;
36379;SDS011;22411;53.016;18.632;2023-06-24T14:28:24;2.65;;;1.60;;
36379;SDS011;22411;53.016;18.632;2023-06-24T14:30:51;3.83;;;1.80;;
36379;SDS011;22411;53.016;18.632;2023-06-24T14:33:17;1.63;;;1.50;;
36379;SDS011;22411;53.016;18.632;2023-06-24T14:35:43;1.77;;;1.55;;
36379;SDS011;22411;53.016;18.632;2023-06-24T14:38:08;2.20;;;1.30;;
36379;SDS011;22411;53.016;18.632;2023-06-24T14:40:34;2.08;;;1.48;;
36379;SDS011;22411;53.016;18.632;2023-06-24T14:43:00;1.92;;;1.73;;
36379;SDS011;22411;53.016;18.632;2023-06-24T14:45:26;2.35;;;2.03;;
36379;SDS011;22411;53.016;18.632;2023-06-24T14:47:52;2.95;;;1.83;;
36379;SDS011;22411;53.016;18.632;2023-06-24T14:50:18;2.50;;;1.65;;
36379;SDS011;22411;53.016;18.632;2023-06-24T14:52:44;3.20;;;1.77;;
36379;SDS011;22411;53.016;18.632;2023-06-24T14:55:10;2.75;;;1.73;;
36379;SDS011;22411;53.016;18.632;2023-06-24T14:57:36;2.80;;;1.95;;
36379;SDS011;22411;53.016;18.632;2023-06-24T15:00:02;2.22;;;1.80;;
36379;SDS011;22411;53.016;18.632;2023-06-24T15:02:29;3.08;;;1.98;;
36379;SDS011;22411;53.016;18.632;2023-06-24T15:04:55;2.03;;;1.40;;
36379;SDS011;22411;53.016;18.632;2023-06-24T15:07:20;4.10;;;1.92;;
36379;SDS011;22411;53.016;18.632;2023-06-24T15:09:46;2.40;;;2.20;;